sensor_id;sensor_type;location;lat;lon;timestamp;temperature;humidity
14761;DHT22;7472;45.396;5.272;2024-02-26T00:22:35;7.00;99.90
14761;DHT22;7472;45.396;5.272;2024-02-26T00:25:02;7.00;99.90
14761;DHT22;7472;45.396;5.272;2024-02-26T00:27:33;7.00;99.90
14761;DHT22;7472;45.396;5.272;2024-02-26T00:30:00;7.00;99.90
14761;DHT22;7472;45.396;5.272;2024-02-26T00:32:27;7.00;99.90
14761;DHT22;7472;45.396;5.272;2024-02-26T00:34:54;7.00;99.90
14761;DHT22;7472;45.396;5.272;2024-02-26T00:37:21;7.00;99.90
14761;DHT22;7472;45.396;5.272;2024-02-26T00:39:48;7.00;99.90
14761;DHT22;7472;45.396;5.272;2024-02-26T00:42:16;7.00;99.90
14761;DHT22;7472;45.396;5.272;2024-02-26T00:44:44;7.00;99.90
14761;DHT22;7472;45.396;5.272;2024-02-26T00:47:11;7.00;99.90
14761;DHT22;7472;45.396;5.272;2024-02-26T00:49:38;7.00;99.90
14761;DHT22;7472;45.396;5.272;2024-02-26T00:54:33;6.90;99.90
14761;DHT22;7472;45.396;5.272;2024-02-26T00:57:00;6.90;99.90
14761;DHT22;7472;45.396;5.272;2024-02-26T00:59:28;6.90;99.90
14761;DHT22;7472;45.396;5.272;2024-02-26T01:01:56;7.00;99.90
14761;DHT22;7472;45.396;5.272;2024-02-26T01:04:24;7.00;99.90
14761;DHT22;7472;45.396;5.272;2024-02-26T01:06:51;7.00;99.90
14761;DHT22;7472;45.396;5.272;2024-02-26T01:09:18;7.00;99.90
14761;DHT22;7472;45.396;5.272;2024-02-26T01:11:45;7.00;99.90
14761;DHT22;7472;45.396;5.272;2024-02-26T01:14:12;7.10;99.90
14761;DHT22;7472;45.396;5.272;2024-02-26T01:16:40;7.20;99.90
14761;DHT22;7472;45.396;5.272;2024-02-26T01:19:08;7.20;99.90
14761;DHT22;7472;45.396;5.272;2024-02-26T01:21:36;7.20;99.90
14761;DHT22;7472;45.396;5.272;2024-02-26T01:26:30;7.30;99.90
14761;DHT22;7472;45.396;5.272;2024-02-26T01:28:57;7.20;99.90
14761;DHT22;7472;45.396;5.272;2024-02-26T01:31:24;7.20;99.90
14761;DHT22;7472;45.396;5.272;2024-02-26T01:33:51;7.20;99.90
14761;DHT22;7472;45.396;5.272;2024-02-26T01:36:20;7.30;99.90
14761;DHT22;7472;45.396;5.272;2024-02-26T01:38:47;7.40;99.90
14761;DHT22;7472;45.396;5.272;2024-02-26T01:41:14;7.50;99.90
14761;DHT22;7472;45.396;5.272;2024-02-26T01:43:42;7.50;99.90
14761;DHT22;7472;45.396;5.272;2024-02-26T01:46:11;7.50;99.90
14761;DHT22;7472;45.396;5.272;2024-02-26T01:51:08;7.40;99.90
14761;DHT22;7472;45.396;5.272;2024-02-26T01:53:38;7.40;99.90
14761;DHT22;7472;45.396;5.272;2024-02-26T02:01:02;7.50;99.90
14761;DHT22;7472;45.396;5.272;2024-02-26T02:03:29;7.40;99.90
14761;DHT22;7472;45.396;5.272;2024-02-26T02:05:57;7.30;99.90
14761;DHT22;7472;45.396;5.272;2024-02-26T02:08:25;7.20;99.90
14761;DHT22;7472;45.396;5.272;2024-02-26T02:10:54;7.10;99.90
14761;DHT22;7472;45.396;5.272;2024-02-26T02:13:21;7.10;99.90
14761;DHT22;7472;45.396;5.272;2024-02-26T02:15:48;7.10;99.90
14761;DHT22;7472;45.396;5.272;2024-02-26T02:18:15;7.10;99.90
14761;DHT22;7472;45.396;5.272;2024-02-26T02:20:44;7.10;99.90
14761;DHT22;7472;45.396;5.272;2024-02-26T02:25:40;7.10;99.90
14761;DHT22;7472;45.396;5.272;2024-02-26T02:28:07;7.10;99.90
14761;DHT22;7472;45.396;5.272;2024-02-26T02:30:34;7.00;99.90
14761;DHT22;7472;45.396;5.272;2024-02-26T02:33:01;7.00;99.90
14761;DHT22;7472;45.396;5.272;2024-02-26T02:35:29;7.00;99.90
14761;DHT22;7472;45.396;5.272;2024-02-26T02:37:57;7.00;99.90
14761;DHT22;7472;45.396;5.272;2024-02-26T02:40:24;7.00;99.90
14761;DHT22;7472;45.396;5.272;2024-02-26T02:42:52;7.10;99.90
14761;DHT22;7472;45.396;5.272;2024-02-26T02:47:46;7.10;99.90
14761;DHT22;7472;45.396;5.272;2024-02-26T02:50:13;7.10;99.90
14761;DHT22;7472;45.396;5.272;2024-02-26T02:52:40;7.00;99.90
14761;DHT22;7472;45.396;5.272;2024-02-26T02:55:09;7.00;99.90
14761;DHT22;7472;45.396;5.272;2024-02-26T03:00:07;6.90;99.90
14761;DHT22;7472;45.396;5.272;2024-02-26T03:02:34;6.90;99.90
14761;DHT22;7472;45.396;5.272;2024-02-26T03:05:02;6.90;99.90
14761;DHT22;7472;45.396;5.272;2024-02-26T03:07:29;6.90;99.90
14761;DHT22;7472;45.396;5.272;2024-02-26T03:09:57;7.00;99.90
14761;DHT22;7472;45.396;5.272;2024-02-26T03:12:26;6.90;99.90
14761;DHT22;7472;45.396;5.272;2024-02-26T03:14:53;6.90;99.90
14761;DHT22;7472;45.396;5.272;2024-02-26T03:22:18;6.80;99.90
14761;DHT22;7472;45.396;5.272;2024-02-26T03:24:46;6.80;99.90
14761;DHT22;7472;45.396;5.272;2024-02-26T03:27:13;6.80;99.90
14761;DHT22;7472;45.396;5.272;2024-02-26T03:32:09;6.80;99.90
14761;DHT22;7472;45.396;5.272;2024-02-26T03:34:36;6.80;99.90
14761;DHT22;7472;45.396;5.272;2024-02-26T03:37:04;6.70;99.90
14761;DHT22;7472;45.396;5.272;2024-02-26T03:39:33;6.70;99.90
14761;DHT22;7472;45.396;5.272;2024-02-26T03:42:00;6.70;99.90
14761;DHT22;7472;45.396;5.272;2024-02-26T03:44:27;7.80;99.90
14761;DHT22;7472;45.396;5.272;2024-02-26T03:49:23;6.70;99.90
14761;DHT22;7472;45.396;5.272;2024-02-26T04:11:39;6.70;99.90
14761;DHT22;7472;45.396;5.272;2024-02-26T04:14:06;6.70;99.90
14761;DHT22;7472;45.396;5.272;2024-02-26T04:16:34;6.60;99.90
14761;DHT22;7472;45.396;5.272;2024-02-26T04:19:01;6.70;99.90
14761;DHT22;7472;45.396;5.272;2024-02-26T04:23:57;6.60;99.90
14761;DHT22;7472;45.396;5.272;2024-02-26T04:26:27;6.60;99.90
14761;DHT22;7472;45.396;5.272;2024-02-26T04:28:54;6.70;99.90
14761;DHT22;7472;45.396;5.272;2024-02-26T04:31:21;6.70;99.90
14761;DHT22;7472;45.396;5.272;2024-02-26T04:33:48;6.80;99.90
14761;DHT22;7472;45.396;5.272;2024-02-26T04:36:16;6.80;99.90
14761;DHT22;7472;45.396;5.272;2024-02-26T04:38:44;6.80;99.90
14761;DHT22;7472;45.396;5.272;2024-02-26T04:41:11;6.80;99.90
14761;DHT22;7472;45.396;5.272;2024-02-26T04:43:39;6.70;99.90
14761;DHT22;7472;45.396;5.272;2024-02-26T04:46:07;6.70;99.90
14761;DHT22;7472;45.396;5.272;2024-02-26T04:48:35;6.70;99.90
14761;DHT22;7472;45.396;5.272;2024-02-26T04:51:02;6.70;99.90
14761;DHT22;7472;45.396;5.272;2024-02-26T04:53:30;6.80;99.90
14761;DHT22;7472;45.396;5.272;2024-02-26T04:55:58;6.80;99.90
14761;DHT22;7472;45.396;5.272;2024-02-26T04:58:25;6.80;99.90
14761;DHT22;7472;45.396;5.272;2024-02-26T05:00:52;6.80;99.90
14761;DHT22;7472;45.396;5.272;2024-02-26T05:03:20;6.90;99.90
14761;DHT22;7472;45.396;5.272;2024-02-26T05:05:47;6.90;99.90
14761;DHT22;7472;45.396;5.272;2024-02-26T05:08:14;6.80;99.90
14761;DHT22;7472;45.396;5.272;2024-02-26T05:10:41;6.90;99.90
14761;DHT22;7472;45.396;5.272;2024-02-26T05:13:10;6.90;99.90
14761;DHT22;7472;45.396;5.272;2024-02-26T05:15:37;6.90;99.90
14761;DHT22;7472;45.396;5.272;2024-02-26T05:18:05;6.80;99.90
14761;DHT22;7472;45.396;5.272;2024-02-26T05:20:33;6.80;99.90
14761;DHT22;7472;45.396;5.272;2024-02-26T05:23:01;6.80;99.90
14761;DHT22;7472;45.396;5.272;2024-02-26T05:25:29;6.80;99.90
14761;DHT22;7472;45.396;5.272;2024-02-26T05:27:56;6.70;99.90
14761;DHT22;7472;45.396;5.272;2024-02-26T05:30:25;6.60;99.90
14761;DHT22;7472;45.396;5.272;2024-02-26T05:32:52;6.60;99.90
14761;DHT22;7472;45.396;5.272;2024-02-26T05:35:19;6.60;99.90
14761;DHT22;7472;45.396;5.272;2024-02-26T05:55:05;6.30;99.90
14761;DHT22;7472;45.396;5.272;2024-02-26T05:57:33;6.20;99.90
14761;DHT22;7472;45.396;5.272;2024-02-26T06:00:00;6.10;99.90
14761;DHT22;7472;45.396;5.272;2024-02-26T06:02:31;5.80;99.90
14761;DHT22;7472;45.396;5.272;2024-02-26T06:05:00;5.90;99.90
14761;DHT22;7472;45.396;5.272;2024-02-26T06:07:27;5.80;99.90
14761;DHT22;7472;45.396;5.272;2024-02-26T06:14:52;5.80;99.90
14761;DHT22;7472;45.396;5.272;2024-02-26T06:17:19;6.20;99.90
14761;DHT22;7472;45.396;5.272;2024-02-26T06:19:46;6.30;99.90
14761;DHT22;7472;45.396;5.272;2024-02-26T06:22:14;6.20;99.90
14761;DHT22;7472;45.396;5.272;2024-02-26T06:24:42;6.40;99.90
14761;DHT22;7472;45.396;5.272;2024-02-26T06:27:09;6.10;99.90
14761;DHT22;7472;45.396;5.272;2024-02-26T06:29:36;6.00;99.90
14761;DHT22;7472;45.396;5.272;2024-02-26T06:32:03;6.00;99.90
14761;DHT22;7472;45.396;5.272;2024-02-26T06:34:31;6.10;99.90
14761;DHT22;7472;45.396;5.272;2024-02-26T06:49:25;5.80;99.90
14761;DHT22;7472;45.396;5.272;2024-02-26T06:51:53;5.60;99.90
14761;DHT22;7472;45.396;5.272;2024-02-26T06:54:20;5.90;99.90
14761;DHT22;7472;45.396;5.272;2024-02-26T06:56:49;6.20;99.90
14761;DHT22;7472;45.396;5.272;2024-02-26T07:04:13;6.40;99.90
14761;DHT22;7472;45.396;5.272;2024-02-26T07:06:40;6.50;99.90
14761;DHT22;7472;45.396;5.272;2024-02-26T07:09:09;6.60;99.90
14761;DHT22;7472;45.396;5.272;2024-02-26T07:19:04;7.40;99.90
14761;DHT22;7472;45.396;5.272;2024-02-26T07:28:56;7.90;99.90
14761;DHT22;7472;45.396;5.272;2024-02-26T07:31:25;7.70;99.90
14761;DHT22;7472;45.396;5.272;2024-02-26T07:33:52;7.60;99.90
14761;DHT22;7472;45.396;5.272;2024-02-26T07:36:19;7.50;99.90
14761;DHT22;7472;45.396;5.272;2024-02-26T07:38:46;7.50;99.90
14761;DHT22;7472;45.396;5.272;2024-02-26T07:41:13;7.50;99.90
14761;DHT22;7472;45.396;5.272;2024-02-26T07:43:40;7.50;99.90
14761;DHT22;7472;45.396;5.272;2024-02-26T07:46:08;7.50;99.90
14761;DHT22;7472;45.396;5.272;2024-02-26T07:48:39;7.60;99.90
14761;DHT22;7472;45.396;5.272;2024-02-26T07:51:06;7.70;99.90
